LFBHLFBP

Guest
Details From LFBH - La Rochelle Laleu
To LFBP - Pau Pyrenees
Flight Number -
Tags generated
Created
Modified
Stats Distance 171 nm / 318 km
Max Altitude 17,800 ft / 5,425 m
Waypoints 3
Social Downloads 0
Likes 0
Share VATSIM

Download

Looking for another format? Having issues loading an existing format? Contact us
Advertisement - Login to hide

Notes

Basic altitude profile: - Ascent Rate: 2500ft/min - Ascent Speed: 250kts - Cruise Altitude: 2500ft - Cruise Speed: 420kts - Descent Rate: 1500ft/min - Descent Speed: 250kts Options: - Use NATs: yes - Use PACOTS: yes - Use low airways: no - Use high airways: yes

Route

LFBH BMC LFBP

ID Type Via Altitude Latitude Longitude Leg Dist Tot Dist Heading (true) Name
O LFBH APT - 0 ft / 0 m 46.17924˚ -1.19641˚ - 0 nm - La Rochelle Laleu
BMC VOR - 17,800 ft / 5,425 m 44.82694˚ -0.72111˚ 83 nm 83 nm 166° / 166° BORDEAUX MERIGNAC VOR-DME
O LFBP APT - 0 ft / 0 m 43.38108˚ -0.42075˚ 87 nm 171 nm 171° / 172° Pau Pyrenees

Altitude Profile

Advertisement - Login to hide

Weather


0- 5 10 15 20 25 30 35+ Temperature / ° C

Clouds and Precipitation
Forecast for 2017-12-15 18:00 UTC. Updated an hour ago

Ground ~20,000 ft ~40,000 ft Winds

LFBH

Details ICAO LFBH (LRH)
Name La Rochelle Laleu
Region France
Timezone Europe/Paris (UTC+1.0)
Stats Elevation 74 ft / 23 m (AMSL)
Location 46.179245° -1.196410°
Runways 1
Magnetic Variation 0.302° W

METAR

LFBH 151800Z AUTO 33015KT CAVOK 08/04 Q1008 NOSIG

Decode

TAF

TAF LFBH 151700Z 1518/1618 33012KT CAVOK

Decode

Departure Runways

ID Width Length Bearing (true) Bearing (mag) Surface Threshold Offset Overrun Length
10 148 ft / 45 m 7,383 ft / 2,250 m 92.43° 92.73° Asphalt 1,033 ft / 315 m 0 ft / 0 m
28 148 ft / 45 m 7,383 ft / 2,250 m 272.45° 272.75° Asphalt 1,532 ft / 467 m 0 ft / 0 m

LFBP

Details ICAO LFBP (PUF)
Name Pau Pyrenees
Region France
Timezone Europe/Paris (UTC+1.0)
Stats Elevation 616 ft / 188 m (AMSL)
Location 43.381078° -0.420752°
Runways 1
Magnetic Variation 0.094° E

METAR

LFBP 151800Z AUTO 24011KT 9999 FEW035/// SCT046/// BKN058/// ///TCU 06/04 Q1010 TEMPO 30015G30KT 2000 SHRA SCT010 BKN013CB

Decode

TAF

TAF LFBP 151700Z 1518/1618 24010KT 9999 SCT020TCU BKN040 TEMPO 1518/1521 30015G30KT 2000 SHRA SCT010 BKN013CB PROB30 TEMPO 1521/1618 4000 -SHRA BKN006 BKN016TCU

Decode

Destination Runways

ID Width Length Bearing (true) Bearing (mag) Surface Threshold Offset Overrun Length
13 148 ft / 45 m 8,191 ft / 2,497 m 125.89° 125.80° Asphalt 0 ft / 0 m 0 ft / 0 m
31 148 ft / 45 m 8,191 ft / 2,497 m 305.90° 305.81° Asphalt 0 ft / 0 m 0 ft / 0 m

Approach Navaids

Runway Type Ident Frequency Range Bearing (true) Bearing (mag) Slope Elevation
31 Localiser PU 110.10 MHz 18 nm / 33 km 305.89° 305.79° - 576 ft / 176 m (AMSL)
31 Glidescope PU 110.10 MHz 10 nm / 19 km 305.90° 305.80° 3.00° 676 ft / 206 m (AMSL)
31 DME PU 110.10 MHz 18 nm / 33 km - - - 608 ft / 185 m (AMSL)

Popular Alternatives